createdAt,value
2022-08-16T00:00:03.268Z,67.27
2022-08-16T00:00:03.479Z,67.26
2022-08-16T00:00:06.391Z,67.29
2022-08-16T00:00:22.158Z,67.32
2022-08-16T00:00:27.724Z,67.36
2022-08-16T00:00:39.267Z,67.38
2022-08-16T00:00:47.676Z,67.06
2022-08-16T00:00:57.293Z,67.12
2022-08-16T00:01:07.394Z,66.90
2022-08-16T00:01:19.324Z,66.80
2022-08-16T00:01:34.241Z,66.93
2022-08-16T00:01:40.839Z,67.21
2022-08-16T00:01:50.941Z,67.05
2022-08-16T00:02:00.886Z,66.96
2022-08-16T00:02:12.902Z,66.93
2022-08-16T00:02:18.985Z,67.16
2022-08-16T00:02:28.965Z,67.02
2022-08-16T00:02:40.927Z,66.91
2022-08-16T00:02:49.186Z,67.04
2022-08-16T00:03:00.975Z,66.85
2022-08-16T00:03:13.435Z,67.01
2022-08-16T00:03:20.054Z,67.32
2022-08-16T00:03:29.500Z,67.07
2022-08-16T00:03:41.316Z,67.00
2022-08-16T00:03:50.518Z,67.19
2022-08-16T00:04:01.496Z,67.04
2022-08-16T00:04:10.359Z,67.49
2022-08-16T00:04:21.824Z,67.22
2022-08-16T00:04:31.816Z,67.23
2022-08-16T00:04:41.806Z,67.35
2022-08-16T00:04:51.155Z,67.51
2022-08-16T00:05:02.057Z,67.39
2022-08-16T00:05:09.915Z,67.24
2022-08-16T00:05:19.926Z,67.06
2022-08-16T00:05:34.984Z,67.12
2022-08-16T00:05:48.379Z,67.58
2022-08-16T00:05:49.927Z,67.71
2022-08-16T00:06:00.955Z,67.75
2022-08-16T00:06:10.528Z,67.55
2022-08-16T00:06:22.490Z,67.26
2022-08-16T00:06:32.310Z,67.31
2022-08-16T00:06:40.498Z,67.25
2022-08-16T00:06:52.446Z,67.06
2022-08-16T00:07:02.444Z,67.46
2022-08-16T00:07:12.648Z,67.45
2022-08-16T00:07:22.576Z,67.32
2022-08-16T00:07:32.595Z,67.44
2022-08-16T00:07:42.584Z,67.52
2022-08-16T00:07:56.516Z,67.30
2022-08-16T00:08:01.756Z,67.61
2022-08-16T00:08:11.741Z,67.67
2022-08-16T00:08:35.836Z,67.77
2022-08-16T00:08:36.707Z,67.76
2022-08-16T00:08:45.919Z,67.77
2022-08-16T00:08:52.374Z,67.72
2022-08-16T00:09:04.047Z,67.35
2022-08-16T00:09:14.272Z,67.29
2022-08-16T00:09:22.498Z,67.16
2022-08-16T00:09:32.507Z,66.99
2022-08-16T00:09:42.468Z,67.33
2022-08-16T00:09:54.433Z,67.20
2022-08-16T00:10:02.698Z,67.25
2022-08-16T00:10:20.713Z,67.00
2022-08-16T00:10:24.019Z,67.51
2022-08-16T00:10:34.006Z,67.22
2022-08-16T00:10:45.949Z,67.03
2022-08-16T00:10:55.937Z,67.09
2022-08-16T00:11:05.956Z,67.18
2022-08-16T00:11:16.566Z,67.14
2022-08-16T00:11:23.977Z,67.20
2022-08-16T00:11:33.997Z,67.07
2022-08-16T00:11:46.044Z,66.96
2022-08-16T00:11:55.512Z,67.08
2022-08-16T00:12:03.988Z,66.95
2022-08-16T00:12:17.764Z,66.95
2022-08-16T00:12:26.657Z,67.25
2022-08-16T00:12:33.968Z,67.34
2022-08-16T00:12:44.011Z,67.20
2022-08-16T00:12:54.775Z,67.00
2022-08-16T00:13:04.037Z,66.96
2022-08-16T00:13:15.439Z,66.83
2022-08-16T00:13:23.989Z,67.14
2022-08-16T00:13:41.399Z,66.98
2022-08-16T00:13:54.293Z,67.36
2022-08-16T00:13:56.120Z,67.42
2022-08-16T00:14:08.512Z,67.10
2022-08-16T00:14:18.069Z,67.21
2022-08-16T00:14:29.260Z,67.14
2022-08-16T00:14:36.148Z,67.18
2022-08-16T00:14:46.365Z,66.97
2022-08-16T00:14:56.867Z,66.90
2022-08-16T00:15:11.766Z,66.92
2022-08-16T00:15:18.619Z,67.30
2022-08-16T00:15:51.561Z,67.16
2022-08-16T00:15:51.626Z,67.58
2022-08-16T00:15:51.870Z,67.43
2022-08-16T00:16:01.818Z,67.62
2022-08-16T00:17:01.176Z,67.71
2022-08-16T00:17:01.703Z,67.69
2022-08-16T00:17:05.331Z,67.68
2022-08-16T00:17:05.551Z,67.73
2022-08-16T00:17:05.594Z,67.70
2022-08-16T00:17:18.436Z,67.69
2022-08-16T00:17:19.444Z,67.70
2022-08-16T00:17:28.208Z,67.35
2022-08-16T00:17:56.387Z,67.48
2022-08-16T00:17:56.526Z,67.15
2022-08-16T00:18:00.801Z,67.62
2022-08-16T00:18:09.799Z,67.29
2022-08-16T00:18:22.080Z,67.13
2022-08-16T00:18:32.181Z,67.59
2022-08-16T00:18:43.310Z,67.27
2022-08-16T00:18:51.339Z,67.32
2022-08-16T00:19:01.371Z,67.20
2022-08-16T00:19:13.711Z,67.24
2022-08-16T00:19:22.473Z,67.44
2022-08-16T00:19:41.161Z,67.50
2022-08-16T00:19:43.850Z,67.73
2022-08-16T00:19:53.880Z,67.43
2022-08-16T00:20:02.879Z,67.37
2022-08-16T00:20:12.901Z,67.18
2022-08-16T00:20:24.841Z,67.13
2022-08-16T00:20:32.870Z,67.23
2022-08-16T00:20:44.867Z,67.08
2022-08-16T00:20:54.404Z,67.19
2022-08-16T00:21:04.821Z,67.10
2022-08-16T00:21:14.833Z,67.11
2022-08-16T00:21:22.913Z,67.08
2022-08-16T00:21:33.471Z,66.95
2022-08-16T00:21:44.813Z,67.09
2022-08-16T00:21:56.080Z,67.17
2022-08-16T00:22:12.762Z,67.47
2022-08-16T00:22:15.383Z,67.65
2022-08-16T00:22:24.631Z,67.36
2022-08-16T00:22:33.771Z,67.24
2022-08-16T00:22:43.761Z,67.08
2022-08-16T00:22:53.761Z,67.15
2022-08-16T00:23:03.771Z,67.20
2022-08-16T00:23:13.770Z,67.15
2022-08-16T00:23:24.475Z,67.30
2022-08-16T00:23:34.789Z,67.49
2022-08-16T00:23:46.250Z,67.62
2022-08-16T00:23:55.723Z,67.62
2022-08-16T00:24:04.661Z,67.46
2022-08-16T00:24:30.919Z,67.21
2022-08-16T00:24:31.150Z,67.51
2022-08-16T00:24:37.841Z,67.65
2022-08-16T00:24:47.144Z,67.35
2022-08-16T00:24:56.848Z,67.48
2022-08-16T00:25:06.856Z,67.26
2022-08-16T00:25:16.862Z,67.17
2022-08-16T00:26:13.594Z,67.15
2022-08-16T00:26:33.775Z,67.45
2022-08-16T00:26:34.629Z,67.60
2022-08-16T00:26:34.927Z,67.59
2022-08-16T00:26:35.066Z,67.50
2022-08-16T00:26:35.391Z,67.53
2022-08-16T00:26:35.846Z,67.54
2022-08-16T00:26:44.969Z,67.58
2022-08-16T00:26:50.943Z,67.54
2022-08-16T00:26:59.479Z,67.26
2022-08-16T00:27:11.442Z,66.98
2022-08-16T00:27:21.423Z,67.11
2022-08-16T00:27:31.016Z,67.04
2022-08-16T00:27:39.724Z,66.98
2022-08-16T00:27:51.412Z,66.92
2022-08-16T00:28:01.441Z,67.29
2022-08-16T00:28:09.560Z,67.25
2022-08-16T00:28:21.413Z,67.08
2022-08-16T00:28:31.423Z,67.06
2022-08-16T00:28:41.423Z,67.03
2022-08-16T00:28:54.935Z,67.38
2022-08-16T00:29:02.736Z,67.47
2022-08-16T00:29:10.772Z,67.23
2022-08-16T00:29:22.744Z,67.03
2022-08-16T00:29:30.763Z,67.09
2022-08-16T00:29:40.771Z,66.93
2022-08-16T00:30:08.410Z,66.94
2022-08-16T00:30:19.213Z,67.41
2022-08-16T00:30:19.612Z,67.51
2022-08-16T00:30:28.930Z,67.56
2022-08-16T00:30:34.214Z,67.48
2022-08-16T00:30:46.168Z,67.17
2022-08-16T00:30:54.205Z,67.25
2022-08-16T00:31:04.225Z,67.46
2022-08-16T00:31:16.164Z,67.11
2022-08-16T00:31:27.704Z,67.49
2022-08-16T00:31:58.943Z,67.56
2022-08-16T00:32:01.212Z,67.57
2022-08-16T00:32:05.409Z,67.55
2022-08-16T00:32:08.905Z,67.53
2022-08-16T00:32:18.856Z,67.23
2022-08-16T00:32:33.009Z,66.98
2022-08-16T00:32:40.805Z,67.36
2022-08-16T00:32:49.035Z,67.14
2022-08-16T00:32:58.876Z,66.92
2022-08-16T00:33:09.791Z,66.83
2022-08-16T00:33:18.879Z,66.93
2022-08-16T00:33:30.841Z,66.83
2022-08-16T00:33:38.855Z,66.97
2022-08-16T00:33:49.990Z,66.81
2022-08-16T00:34:00.804Z,66.98
2022-08-16T00:34:18.387Z,67.32
2022-08-16T00:34:20.778Z,67.54
2022-08-16T00:34:44.607Z,67.18
2022-08-16T00:34:44.700Z,67.47
2022-08-16T00:34:53.106Z,67.55
2022-08-16T00:35:02.825Z,67.49
2022-08-16T00:35:15.453Z,67.67
2022-08-16T00:35:24.361Z,67.60
2022-08-16T00:35:32.415Z,67.37
2022-08-16T00:35:44.626Z,67.23
2022-08-16T00:35:54.206Z,67.46
2022-08-16T00:36:06.236Z,67.25
2022-08-16T00:36:15.655Z,67.48
2022-08-16T00:36:26.163Z,67.28
2022-08-16T00:36:35.063Z,67.18
2022-08-16T00:36:47.290Z,67.03
2022-08-16T00:36:56.160Z,67.31
2022-08-16T00:37:04.206Z,67.54
2022-08-16T00:37:17.082Z,67.25
2022-08-16T00:37:56.699Z,67.79
2022-08-16T00:37:57.311Z,67.48
2022-08-16T00:37:57.623Z,67.76
2022-08-16T00:37:59.570Z,67.77
2022-08-16T00:38:40.058Z,67.54
2022-08-16T00:38:41.297Z,67.32
2022-08-16T00:38:41.459Z,67.60
2022-08-16T00:38:43.618Z,67.60
2022-08-16T00:38:49.057Z,67.58
2022-08-16T00:39:01.169Z,67.23
2022-08-16T00:39:09.525Z,67.23
2022-08-16T00:39:19.930Z,67.42
2022-08-16T00:39:29.156Z,67.20
2022-08-16T00:39:41.109Z,67.09
2022-08-16T00:39:57.785Z,67.08
2022-08-16T00:40:01.704Z,67.39
2022-08-16T00:40:33.420Z,67.18
2022-08-16T00:40:34.179Z,67.51
2022-08-16T00:40:34.909Z,67.43
2022-08-16T00:40:43.581Z,67.55
2022-08-16T00:40:53.644Z,67.55
2022-08-16T00:41:01.314Z,67.44
2022-08-16T00:41:13.278Z,67.21
2022-08-16T00:41:23.262Z,67.19
2022-08-16T00:41:31.297Z,67.12
2022-08-16T00:41:42.257Z,67.34
2022-08-16T00:41:51.338Z,67.45
2022-08-16T00:42:03.289Z,67.13
2022-08-16T00:42:13.288Z,67.14
2022-08-16T00:42:30.381Z,67.13
2022-08-16T00:42:33.718Z,67.45
2022-08-16T00:42:44.858Z,67.15
2022-08-16T00:42:55.150Z,67.32
2022-08-16T00:43:02.867Z,67.25
2022-08-16T00:43:19.108Z,67.00
2022-08-16T00:43:23.644Z,67.44
2022-08-16T00:43:40.866Z,67.22
2022-08-16T00:43:43.849Z,67.50
2022-08-16T00:43:54.808Z,67.28
2022-08-16T00:44:02.989Z,67.22
2022-08-16T00:44:15.036Z,67.06
2022-08-16T00:44:32.901Z,67.22
2022-08-16T00:44:35.859Z,67.63
2022-08-16T00:44:46.348Z,67.33
2022-08-16T00:44:55.873Z,67.23
2022-08-16T00:45:08.320Z,67.13
2022-08-16T00:45:16.337Z,67.40
2022-08-16T00:45:25.067Z,67.56
2022-08-16T00:45:35.479Z,67.30
2022-08-16T00:45:57.936Z,67.27
2022-08-16T00:46:00.156Z,67.61
2022-08-16T00:46:22.390Z,67.67
2022-08-16T00:46:32.890Z,67.71
2022-08-16T00:46:34.797Z,67.71
2022-08-16T00:46:35.978Z,67.75
2022-08-16T00:46:52.920Z,67.36
2022-08-16T00:47:05.948Z,67.69
2022-08-16T00:47:08.408Z,67.73
2022-08-16T00:47:17.920Z,67.38
2022-08-16T00:47:30.053Z,67.19
2022-08-16T00:47:37.929Z,67.42
2022-08-16T00:47:49.458Z,67.38
2022-08-16T00:47:57.949Z,67.32
2022-08-16T00:48:30.308Z,67.56
2022-08-16T00:48:30.506Z,67.10
2022-08-16T00:48:31.168Z,67.63
2022-08-16T00:48:44.299Z,67.62
2022-08-16T00:48:48.991Z,67.66
2022-08-16T00:48:58.008Z,67.31
2022-08-16T00:49:17.304Z,67.14
2022-08-16T00:49:19.677Z,67.51
2022-08-16T00:49:27.596Z,67.30
2022-08-16T00:49:39.686Z,67.05
2022-08-16T00:49:56.725Z,67.52
2022-08-16T00:49:59.150Z,67.67
2022-08-16T00:50:11.437Z,67.31
2022-08-16T00:50:21.095Z,67.40
2022-08-16T00:50:36.528Z,67.26
2022-08-16T00:50:40.850Z,67.51
2022-08-16T00:50:55.249Z,67.22
2022-08-16T00:51:02.663Z,67.40
2022-08-16T00:51:10.692Z,67.23
2022-08-16T00:51:21.330Z,67.35
2022-08-16T00:51:32.651Z,67.15
2022-08-16T00:51:42.653Z,67.24
2022-08-16T00:51:55.160Z,67.18
2022-08-16T00:52:00.678Z,67.30
2022-08-16T00:52:29.499Z,67.31
2022-08-16T00:52:30.235Z,67.06
2022-08-16T00:52:30.978Z,67.39
2022-08-16T00:52:45.811Z,67.10
2022-08-16T00:52:53.605Z,67.37
2022-08-16T00:53:01.107Z,67.36
2022-08-16T00:53:13.001Z,67.11
2022-08-16T00:53:22.037Z,67.03
2022-08-16T00:53:31.108Z,66.85
2022-08-16T00:53:41.224Z,66.86
2022-08-16T00:53:52.991Z,66.75
2022-08-16T00:54:01.878Z,66.85
2022-08-16T00:54:12.992Z,66.71
2022-08-16T00:54:21.652Z,66.93
2022-08-16T00:54:33.074Z,66.86
2022-08-16T00:54:41.041Z,66.80
2022-08-16T00:54:51.061Z,66.69
2022-08-16T00:55:01.294Z,66.63
2022-08-16T00:55:12.962Z,66.57
2022-08-16T00:55:22.971Z,66.99
2022-08-16T00:55:37.687Z,66.90
2022-08-16T00:55:44.703Z,67.13
2022-08-16T00:55:52.741Z,66.89
2022-08-16T00:56:05.251Z,66.65
2022-08-16T00:56:56.980Z,66.95
2022-08-16T00:56:57.474Z,67.25
2022-08-16T00:56:57.553Z,67.16
2022-08-16T00:56:57.948Z,67.23
2022-08-16T00:56:59.606Z,67.26
2022-08-16T00:57:06.792Z,67.25
2022-08-16T00:57:16.285Z,67.24
2022-08-16T00:57:26.425Z,66.82
2022-08-16T00:57:58.991Z,66.73
2022-08-16T00:57:59.584Z,67.04
2022-08-16T00:58:00.797Z,67.10
2022-08-16T00:58:13.168Z,67.05
2022-08-16T00:58:34.598Z,67.18
2022-08-16T00:58:34.887Z,67.16
2022-08-16T00:58:41.373Z,67.10
2022-08-16T00:58:51.348Z,67.06
2022-08-16T00:59:01.538Z,66.78
2022-08-16T00:59:11.314Z,66.61
2022-08-16T00:59:19.969Z,66.85
2022-08-16T00:59:34.225Z,66.85
2022-08-16T00:59:54.691Z,66.96
2022-08-16T00:59:58.986Z,67.10
2022-08-16T01:00:01.250Z,67.05
2022-08-16T01:00:12.953Z,66.69
2022-08-16T01:00:23.833Z,67.03
2022-08-16T01:00:32.547Z,66.70
2022-08-16T01:00:44.540Z,66.50
2022-08-16T01:00:54.604Z,66.90
2022-08-16T01:01:08.264Z,66.64
2022-08-16T01:01:15.579Z,66.89
2022-08-16T01:01:24.146Z,66.73
2022-08-16T01:01:36.029Z,66.58
2022-08-16T01:01:46.037Z,66.71
2022-08-16T01:01:54.104Z,66.60
2022-08-16T01:02:30.868Z,66.46
2022-08-16T01:02:31.182Z,67.15
2022-08-16T01:02:31.740Z,67.00
2022-08-16T01:02:34.557Z,67.26
2022-08-16T01:02:48.725Z,66.90
2022-08-16T01:02:54.487Z,67.12
2022-08-16T01:03:04.667Z,66.82
2022-08-16T01:03:14.693Z,66.78
2022-08-16T01:03:30.105Z,66.67
2022-08-16T01:03:35.977Z,66.94
2022-08-16T01:03:44.698Z,66.79
2022-08-16T01:03:54.503Z,66.95
2022-08-16T01:04:05.436Z,66.72
2022-08-16T01:04:29.893Z,67.02
2022-08-16T01:04:30.149Z,66.70
2022-08-16T01:04:37.012Z,67.20
2022-08-16T01:05:04.631Z,67.06
2022-08-16T01:05:10.454Z,67.15
2022-08-16T01:05:11.241Z,66.95
2022-08-16T01:05:16.442Z,67.25
2022-08-16T01:05:28.398Z,66.90
2022-08-16T01:05:36.428Z,66.81
2022-08-16T01:05:46.449Z,66.64
2022-08-16T01:05:58.402Z,66.57
2022-08-16T01:06:32.761Z,67.04
2022-08-16T01:06:40.038Z,67.18
2022-08-16T01:06:40.296Z,66.76
2022-08-16T01:06:48.857Z,67.26
2022-08-16T01:07:00.944Z,67.22
2022-08-16T01:07:02.100Z,67.22
2022-08-16T01:07:10.418Z,67.12
2022-08-16T01:07:20.019Z,67.22
2022-08-16T01:07:50.500Z,66.83
2022-08-16T01:07:51.389Z,67.19
2022-08-16T01:07:53.317Z,67.24
2022-08-16T01:08:19.589Z,66.88
2022-08-16T01:08:36.071Z,67.11
2022-08-16T01:08:36.483Z,67.15
2022-08-16T01:08:36.742Z,67.12
2022-08-16T01:09:01.094Z,67.25
2022-08-16T01:09:13.106Z,67.07
2022-08-16T01:09:21.972Z,67.04
2022-08-16T01:09:33.242Z,66.89
2022-08-16T01:09:43.190Z,67.03
2022-08-16T01:09:51.452Z,67.07
2022-08-16T01:10:02.003Z,67.16
2022-08-16T01:10:16.145Z,67.05
2022-08-16T01:10:22.017Z,67.34
2022-08-16T01:10:33.352Z,67.49
2022-08-16T01:10:43.557Z,67.26
2022-08-16T01:10:53.067Z,67.26
2022-08-16T01:11:03.557Z,67.16
2022-08-16T01:11:13.537Z,67.01
2022-08-16T01:11:23.542Z,66.92
2022-08-16T01:11:33.646Z,66.88
2022-08-16T01:11:53.845Z,66.93
2022-08-16T01:11:56.761Z,67.26
2022-08-16T01:12:03.289Z,67.35
2022-08-16T01:12:26.500Z,67.13
2022-08-16T01:12:26.590Z,67.42
2022-08-16T01:12:34.166Z,67.43
2022-08-16T01:12:45.699Z,67.23
2022-08-16T01:12:53.733Z,67.12
2022-08-16T01:13:05.815Z,66.90
2022-08-16T01:13:15.155Z,67.11
2022-08-16T01:13:26.751Z,67.01
2022-08-16T01:13:35.786Z,67.17
2022-08-16T01:13:45.790Z,67.17
2022-08-16T01:13:55.788Z,67.29
2022-08-16T01:14:05.787Z,67.18
2022-08-16T01:14:15.792Z,67.03
2022-08-16T01:14:30.048Z,67.38
2022-08-16T01:14:35.036Z,67.50
2022-08-16T01:14:47.224Z,67.08
2022-08-16T01:14:55.200Z,67.17
2022-08-16T01:15:07.106Z,66.96
2022-08-16T01:15:17.171Z,67.09
2022-08-16T01:15:26.197Z,67.00
2022-08-16T01:15:35.242Z,66.95
2022-08-16T01:15:45.230Z,66.90
2022-08-16T01:15:57.187Z,66.96
2022-08-16T01:16:10.325Z,67.35
2022-08-16T01:16:20.058Z,67.63
2022-08-16T01:16:28.343Z,67.62
2022-08-16T01:16:37.209Z,67.58
2022-08-16T01:16:46.738Z,67.34
2022-08-16T01:16:57.197Z,67.15
2022-08-16T01:17:08.280Z,67.14
2022-08-16T01:17:15.278Z,67.28
2022-08-16T01:17:27.198Z,67.19
2022-08-16T01:17:37.520Z,67.25
2022-08-16T01:17:45.297Z,67.13
2022-08-16T01:17:56.361Z,67.40
2022-08-16T01:18:07.248Z,67.27
2022-08-16T01:18:39.104Z,67.24
2022-08-16T01:18:40.114Z,67.64
2022-08-16T01:18:40.332Z,67.44
2022-08-16T01:18:48.797Z,67.59
2022-08-16T01:18:56.859Z,67.33
2022-08-16T01:19:08.818Z,67.04
2022-08-16T01:19:18.318Z,67.46
2022-08-16T01:19:26.887Z,67.28
2022-08-16T01:19:40.958Z,67.17
2022-08-16T01:19:47.222Z,67.27
2022-08-16T01:19:57.356Z,67.15
2022-08-16T01:20:23.416Z,67.18
2022-08-16T01:20:24.041Z,67.50
2022-08-16T01:20:31.509Z,67.66
2022-08-16T01:20:41.670Z,67.56
2022-08-16T01:20:51.470Z,67.35
2022-08-16T01:20:59.580Z,67.15
2022-08-16T01:21:09.532Z,67.00
2022-08-16T01:21:22.326Z,66.97
2022-08-16T01:21:33.253Z,67.25
2022-08-16T01:21:39.935Z,67.47
2022-08-16T01:21:49.523Z,67.23
2022-08-16T01:22:47.408Z,67.55
2022-08-16T01:22:47.892Z,67.61
2022-08-16T01:22:49.428Z,67.01
2022-08-16T01:22:49.756Z,67.64
2022-08-16T01:22:55.905Z,67.53
2022-08-16T01:22:58.895Z,67.36
2022-08-16T01:23:08.835Z,67.42
2022-08-16T01:23:14.143Z,67.53
2022-08-16T01:23:24.151Z,67.45
2022-08-16T01:23:58.529Z,67.53
2022-08-16T01:24:01.006Z,67.32
2022-08-16T01:24:01.137Z,67.18
2022-08-16T01:24:44.370Z,67.49
2022-08-16T01:24:52.223Z,67.57
2022-08-16T01:24:52.646Z,67.58
2022-08-16T01:24:52.760Z,67.52
2022-08-16T01:24:53.938Z,67.50
2022-08-16T01:25:00.404Z,67.58
2022-08-16T01:25:10.731Z,67.32
2022-08-16T01:25:21.534Z,67.00
2022-08-16T01:25:34.171Z,67.05
2022-08-16T01:25:41.621Z,67.32
2022-08-16T01:25:59.819Z,67.41
2022-08-16T01:26:34.243Z,67.52
2022-08-16T01:26:34.261Z,67.47
2022-08-16T01:26:34.658Z,67.50
2022-08-16T01:26:35.595Z,67.41
2022-08-16T01:26:43.834Z,67.36
2022-08-16T01:26:51.871Z,67.14
2022-08-16T01:27:03.859Z,66.88
2022-08-16T01:27:15.154Z,66.99
2022-08-16T01:27:23.832Z,67.04
2022-08-16T01:27:34.696Z,67.28
2022-08-16T01:27:41.862Z,67.38
2022-08-16T01:27:53.830Z,67.17
2022-08-16T01:28:02.052Z,66.99
2022-08-16T01:28:19.765Z,66.77
2022-08-16T01:28:24.443Z,67.32
2022-08-16T01:28:38.774Z,67.38
2022-08-16T01:28:45.600Z,67.47
2022-08-16T01:28:55.124Z,67.05
2022-08-16T01:29:05.392Z,66.90
2022-08-16T01:29:17.021Z,67.31
2022-08-16T01:29:41.708Z,67.10
2022-08-16T01:29:57.562Z,67.40
2022-08-16T01:29:57.947Z,67.57
2022-08-16T01:29:59.672Z,67.60
2022-08-16T01:30:20.403Z,67.27
2022-08-16T01:30:21.890Z,67.42
2022-08-16T01:30:30.905Z,67.56
2022-08-16T01:30:49.657Z,67.23
2022-08-16T01:30:53.585Z,67.52
2022-08-16T01:31:03.724Z,67.29
2022-08-16T01:31:13.722Z,67.11
2022-08-16T01:31:23.713Z,67.08
2022-08-16T01:31:33.301Z,67.43
2022-08-16T01:31:44.293Z,67.55
2022-08-16T01:31:55.235Z,67.57
2022-08-16T01:32:03.290Z,67.41
2022-08-16T01:32:15.264Z,67.14
2022-08-16T01:32:31.491Z,67.62
2022-08-16T01:32:37.363Z,67.78
2022-08-16T01:32:47.240Z,67.41
2022-08-16T01:33:14.497Z,67.77
2022-08-16T01:33:14.652Z,67.61
2022-08-16T01:33:19.683Z,67.75
2022-08-16T01:33:33.407Z,67.40
2022-08-16T01:33:39.202Z,67.58
2022-08-16T01:33:50.263Z,67.69
2022-08-16T01:33:59.151Z,67.42
2022-08-16T01:34:09.162Z,67.26
2022-08-16T01:34:23.216Z,67.55
2022-08-16T01:34:30.223Z,67.64
2022-08-16T01:34:47.552Z,67.35
2022-08-16T01:34:53.606Z,67.54
2022-08-16T01:34:59.326Z,67.63
2022-08-16T01:35:17.637Z,67.24
2022-08-16T01:35:19.859Z,67.53
2022-08-16T01:35:35.355Z,67.26
2022-08-16T01:35:42.953Z,67.57
2022-08-16T01:35:53.380Z,67.37
2022-08-16T01:36:09.492Z,67.23
2022-08-16T01:36:13.694Z,67.48
2022-08-16T01:36:23.263Z,67.31
2022-08-16T01:36:32.923Z,67.40
2022-08-16T01:36:44.686Z,67.27
2022-08-16T01:36:58.154Z,67.70
2022-08-16T01:37:06.193Z,67.69
2022-08-16T01:37:16.324Z,67.45
2022-08-16T01:37:26.219Z,67.33
2022-08-16T01:37:36.278Z,67.33
2022-08-16T01:37:46.224Z,67.48
2022-08-16T01:37:57.764Z,67.83
2022-08-16T01:38:05.819Z,67.78
2022-08-16T01:38:19.443Z,67.57
2022-08-16T01:38:28.080Z,67.69
2022-08-16T01:38:35.807Z,67.78
2022-08-16T01:38:49.013Z,67.62
2022-08-16T01:38:57.157Z,67.82
2022-08-16T01:39:08.295Z,67.59
2022-08-16T01:39:16.505Z,67.82
2022-08-16T01:39:27.529Z,67.55
2022-08-16T01:39:38.500Z,67.48
2022-08-16T01:39:48.513Z,67.56
2022-08-16T01:39:58.548Z,67.46
2022-08-16T01:40:07.212Z,67.59
2022-08-16T01:40:16.495Z,67.58
2022-08-16T01:40:28.465Z,67.43
2022-08-16T01:40:36.806Z,67.58
2022-08-16T01:40:46.674Z,67.38
2022-08-16T01:40:57.585Z,67.35
2022-08-16T01:41:08.725Z,67.88
2022-08-16T01:41:19.280Z,67.71
2022-08-16T01:41:29.672Z,67.75
2022-08-16T01:41:42.228Z,67.93
2022-08-16T01:41:48.344Z,68.06
2022-08-16T01:42:00.265Z,67.71
2022-08-16T01:42:12.901Z,67.64
2022-08-16T01:42:19.272Z,67.85
2022-08-16T01:42:30.254Z,67.68
2022-08-16T01:42:42.461Z,67.59
2022-08-16T01:42:52.165Z,67.74
2022-08-16T01:42:59.316Z,67.96
2022-08-16T01:43:10.245Z,67.72
2022-08-16T01:43:20.247Z,67.92
2022-08-16T01:43:28.297Z,68.00
2022-08-16T01:43:40.261Z,68.00
2022-08-16T01:43:53.571Z,68.07
2022-08-16T01:44:01.358Z,68.23
2022-08-16T01:44:09.636Z,67.91
2022-08-16T01:44:19.638Z,67.65
2022-08-16T01:44:37.296Z,67.65
2022-08-16T01:44:40.746Z,68.04
2022-08-16T01:44:49.257Z,67.89
2022-08-16T01:45:01.218Z,67.96
2022-08-16T01:45:09.751Z,67.95
2022-08-16T01:45:19.744Z,67.75
2022-08-16T01:45:40.787Z,67.81
2022-08-16T01:45:41.771Z,68.28
2022-08-16T01:45:57.471Z,68.24
2022-08-16T01:46:29.231Z,68.43
2022-08-16T01:46:29.435Z,68.56
2022-08-16T01:46:38.385Z,68.56
2022-08-16T01:46:40.130Z,68.54
2022-08-16T01:46:44.217Z,68.54
2022-08-16T01:46:53.418Z,68.19
2022-08-16T01:47:03.428Z,68.09
2022-08-16T01:47:15.391Z,68.00
2022-08-16T01:47:23.429Z,68.29
2022-08-16T01:47:33.439Z,68.13
2022-08-16T01:47:48.998Z,68.07
2022-08-16T01:47:54.897Z,68.47
2022-08-16T01:48:03.418Z,68.20
2022-08-16T01:48:19.121Z,68.44
2022-08-16T01:48:24.408Z,68.52
2022-08-16T01:48:33.409Z,68.47
2022-08-16T01:48:43.458Z,68.27
2022-08-16T01:48:55.360Z,68.23
2022-08-16T01:49:05.358Z,68.20
2022-08-16T01:49:15.347Z,68.03
2022-08-16T01:49:23.401Z,67.95
2022-08-16T01:49:45.697Z,67.78
2022-08-16T01:50:41.760Z,68.55
2022-08-16T01:50:42.373Z,68.47
2022-08-16T01:50:42.575Z,68.44
2022-08-16T01:50:42.657Z,68.46
2022-08-16T01:50:43.165Z,68.51
2022-08-16T01:50:44.276Z,68.32
2022-08-16T01:51:08.833Z,68.56
2022-08-16T01:51:09.168Z,68.53
2022-08-16T01:51:16.857Z,68.52
2022-08-16T01:51:21.132Z,68.51
2022-08-16T01:51:29.630Z,68.45
2022-08-16T01:51:39.658Z,68.15
2022-08-16T01:51:49.662Z,68.05
2022-08-16T01:51:59.680Z,67.98
2022-08-16T01:52:09.729Z,68.16
2022-08-16T01:52:28.105Z,68.42
2022-08-16T01:52:30.522Z,68.59
2022-08-16T01:52:41.571Z,68.30
2022-08-16T01:52:53.124Z,68.60
2022-08-16T01:53:03.810Z,68.58
2022-08-16T01:53:13.100Z,68.62
2022-08-16T01:53:21.160Z,68.33
2022-08-16T01:53:31.168Z,68.07
2022-08-16T01:53:43.281Z,68.17
2022-08-16T01:53:55.319Z,68.01
2022-08-16T01:54:02.323Z,68.24
2022-08-16T01:54:13.478Z,68.10
2022-08-16T01:54:30.562Z,68.29
2022-08-16T01:54:34.740Z,68.48
2022-08-16T01:54:42.780Z,68.49
2022-08-16T01:54:54.761Z,68.20
2022-08-16T01:55:02.771Z,68.08
2022-08-16T01:55:14.473Z,67.87
2022-08-16T01:55:24.722Z,68.26
2022-08-16T01:55:35.834Z,68.13
2022-08-16T01:55:42.793Z,68.17
2022-08-16T01:55:53.859Z,68.36
2022-08-16T01:56:03.062Z,68.12
2022-08-16T01:56:23.414Z,67.85
2022-08-16T01:56:24.332Z,68.21
2022-08-16T01:56:34.885Z,68.07
2022-08-16T01:56:42.960Z,67.87
2022-08-16T01:56:54.901Z,67.71
2022-08-16T01:57:04.872Z,68.05
2022-08-16T01:57:14.882Z,67.99
2022-08-16T01:57:26.436Z,68.19
2022-08-16T01:57:35.595Z,67.93
2022-08-16T01:57:53.309Z,67.77
2022-08-16T01:57:56.226Z,68.06
2022-08-16T01:58:06.811Z,67.90
2022-08-16T01:58:15.572Z,68.09
2022-08-16T01:58:27.022Z,68.15
2022-08-16T01:58:37.355Z,67.91
2022-08-16T01:58:48.072Z,67.86
2022-08-16T01:58:57.503Z,68.07
2022-08-16T01:59:07.506Z,68.12
2022-08-16T01:59:18.560Z,68.46
2022-08-16T01:59:29.034Z,68.48
2022-08-16T01:59:37.843Z,68.45
2022-08-16T01:59:49.043Z,68.52
2022-08-16T02:00:00.605Z,68.96
2022-08-16T02:00:19.455Z,68.66
2022-08-16T02:00:20.199Z,68.83
2022-08-16T02:00:30.207Z,68.89
2022-08-16T02:00:42.133Z,68.55
2022-08-16T02:00:50.193Z,68.70
2022-08-16T02:01:02.160Z,68.68
2022-08-16T02:01:10.261Z,68.67
2022-08-16T02:01:22.219Z,68.46
2022-08-16T02:01:31.843Z,68.67
2022-08-16T02:01:40.233Z,68.55
2022-08-16T02:01:52.654Z,68.51
2022-08-16T02:02:00.591Z,68.82
2022-08-16T02:02:26.834Z,68.59
2022-08-16T02:02:27.295Z,68.97
2022-08-16T02:02:33.463Z,69.19
2022-08-16T02:02:43.169Z,68.76
2022-08-16T02:02:53.899Z,68.61
2022-08-16T02:03:05.073Z,68.62
2022-08-16T02:03:13.092Z,68.61
2022-08-16T02:03:26.643Z,68.56
2022-08-16T02:03:33.092Z,68.71
2022-08-16T02:03:43.116Z,68.59
2022-08-16T02:03:58.363Z,68.53
2022-08-16T02:04:10.318Z,68.90
2022-08-16T02:04:15.653Z,68.96
2022-08-16T02:04:44.569Z,69.12
2022-08-16T02:04:48.602Z,69.27
2022-08-16T02:04:54.458Z,69.27
2022-08-16T02:05:00.518Z,69.31
2022-08-16T02:05:10.515Z,68.97
2022-08-16T02:05:20.506Z,68.79
2022-08-16T02:05:31.041Z,69.02
2022-08-16T02:05:40.745Z,68.91
2022-08-16T02:05:52.309Z,69.22
2022-08-16T02:06:02.276Z,69.02
2022-08-16T02:06:13.825Z,69.31
2022-08-16T02:06:33.819Z,69.47
2022-08-16T02:06:38.022Z,69.53
2022-08-16T02:06:47.153Z,69.49
2022-08-16T02:06:55.717Z,69.44
2022-08-16T02:07:05.742Z,69.28
2022-08-16T02:07:15.746Z,69.10
2022-08-16T02:07:25.745Z,69.16
2022-08-16T02:07:35.753Z,69.03
2022-08-16T02:07:45.755Z,69.11
2022-08-16T02:07:55.773Z,69.10
2022-08-16T02:08:06.877Z,69.14
2022-08-16T02:08:33.239Z,69.55
2022-08-16T02:08:33.823Z,69.27
2022-08-16T02:08:35.004Z,69.86
2022-08-16T02:08:44.938Z,69.56
2022-08-16T02:08:56.925Z,69.78
2022-08-16T02:09:06.890Z,69.56
2022-08-16T02:09:18.386Z,69.87
2022-08-16T02:09:26.433Z,69.60
2022-08-16T02:09:38.428Z,69.79
2022-08-16T02:09:58.778Z,69.59
2022-08-16T02:09:59.688Z,69.92
2022-08-16T02:10:09.928Z,69.99
2022-08-16T02:10:19.922Z,69.72
2022-08-16T02:10:29.915Z,69.54
2022-08-16T02:10:38.618Z,69.81
2022-08-16T02:10:49.593Z,69.67
2022-08-16T02:11:00.566Z,69.47
2022-08-16T02:11:08.918Z,69.50
2022-08-16T02:11:18.596Z,69.38
2022-08-16T02:11:42.974Z,69.85
2022-08-16T02:11:47.673Z,69.44